createdAt,value
2022-12-13T00:00:57.734Z,55.10
2022-12-13T00:03:24.393Z,51.55
2022-12-13T00:05:51.032Z,58.53
2022-12-13T00:08:18.113Z,52.38
2022-12-13T00:10:44.772Z,58.38
2022-12-13T00:13:11.377Z,56.85
2022-12-13T00:15:38.009Z,53.28
2022-12-13T00:18:04.658Z,52.85
2022-12-13T00:20:31.414Z,52.30
2022-12-13T00:22:58.017Z,55.08
2022-12-13T00:25:24.788Z,52.60
2022-12-13T00:27:51.413Z,61.92
2022-12-13T00:30:18.163Z,59.08
2022-12-13T00:32:44.792Z,50.47
2022-12-13T00:35:11.734Z,53.00
2022-12-13T00:37:38.433Z,63.20
2022-12-13T00:40:05.487Z,60.00
2022-12-13T00:42:32.095Z,57.45
2022-12-13T00:44:58.694Z,59.15
2022-12-13T00:47:25.563Z,55.30
2022-12-13T00:49:52.193Z,52.55
2022-12-13T00:52:18.789Z,58.90
2022-12-13T00:54:45.540Z,64.50
2022-12-13T00:57:12.188Z,50.47
2022-12-13T00:59:38.799Z,61.03
2022-12-13T01:02:05.580Z,52.72
2022-12-13T01:04:32.264Z,62.80
2022-12-13T01:06:58.891Z,50.78
2022-12-13T01:09:28.689Z,53.33
2022-12-13T01:12:05.211Z,55.90
2022-12-13T01:14:35.047Z,57.58
2022-12-13T01:17:01.848Z,50.00
2022-12-13T01:19:28.683Z,51.55
2022-12-13T01:21:57.336Z,53.72
2022-12-13T01:24:26.774Z,49.72
2022-12-13T01:26:57.244Z,52.30
2022-12-13T01:29:25.951Z,52.40
2022-12-13T01:31:53.824Z,58.92
2022-12-13T01:34:26.678Z,47.60
2022-12-13T01:36:58.245Z,49.30
2022-12-13T01:39:26.561Z,50.70
2022-12-13T01:41:59.276Z,51.00
2022-12-13T01:44:53.702Z,52.72
2022-12-13T01:47:26.400Z,51.00
2022-12-13T01:49:55.456Z,54.00
2022-12-13T01:52:22.494Z,50.45
2022-12-13T01:54:52.574Z,56.85
2022-12-13T01:57:22.156Z,53.58
2022-12-13T01:59:50.319Z,50.15
2022-12-13T02:02:17.100Z,57.17
2022-12-13T02:04:58.298Z,55.70
2022-12-13T02:07:29.617Z,53.58
2022-12-13T02:09:59.918Z,56.17
2022-12-13T02:12:29.534Z,47.95
2022-12-13T02:15:00.586Z,57.70
2022-12-13T02:17:44.824Z,47.20
2022-12-13T02:20:30.503Z,61.25
2022-12-13T02:23:34.678Z,64.20
2022-12-13T02:26:07.344Z,54.03
2022-12-13T02:29:03.612Z,53.58
2022-12-13T02:31:39.989Z,54.05
2022-12-13T02:34:08.279Z,50.88
2022-12-13T02:37:00.753Z,59.60
2022-12-13T02:39:35.099Z,65.63
2022-12-13T02:42:23.997Z,61.00
2022-12-13T02:44:58.810Z,61.03
2022-12-13T02:47:29.177Z,59.42
2022-12-13T02:49:59.148Z,62.88
2022-12-13T02:52:29.496Z,57.22
2022-12-13T02:54:57.206Z,62.75
2022-12-13T02:57:32.702Z,62.20
2022-12-13T03:00:09.898Z,61.90
2022-12-13T03:02:58.754Z,64.72
2022-12-13T03:06:08.992Z,59.25
2022-12-13T03:08:41.184Z,55.90
2022-12-13T03:11:19.941Z,68.03
2022-12-13T03:13:52.923Z,62.20
2022-12-13T03:16:23.751Z,62.28
2022-12-13T03:18:53.195Z,70.55
2022-12-13T03:23:48.866Z,64.72
2022-12-13T03:26:19.781Z,62.13
2022-12-13T03:28:46.545Z,57.40
2022-12-13T03:31:13.246Z,59.67
2022-12-13T03:33:39.980Z,56.70
2022-12-13T03:36:07.259Z,55.28
2022-12-13T03:38:34.377Z,60.35
2022-12-13T03:41:04.315Z,66.22
2022-12-13T03:43:31.201Z,58.65
2022-12-13T03:45:57.840Z,56.08
2022-12-13T03:48:24.708Z,65.43
2022-12-13T03:50:52.892Z,62.53
2022-12-13T03:53:23.266Z,62.47
2022-12-13T03:56:00.702Z,61.80
2022-12-13T03:58:35.975Z,59.67
2022-12-13T04:01:05.599Z,59.97
2022-12-13T04:03:32.995Z,64.65
2022-12-13T04:05:59.637Z,62.65
2022-12-13T04:08:26.311Z,59.47
2022-12-13T04:10:53.090Z,58.13
2022-12-13T04:13:34.974Z,57.63
2022-12-13T04:16:02.544Z,63.15
2022-12-13T04:18:29.662Z,58.10
2022-12-13T04:20:57.332Z,61.00
2022-12-13T04:23:24.219Z,57.53
2022-12-13T04:25:51.422Z,59.58
2022-12-13T04:28:21.785Z,61.28
2022-12-13T04:33:21.960Z,75.13
2022-12-13T04:35:49.373Z,69.20
2022-12-13T04:38:16.397Z,66.32
2022-12-13T04:40:43.052Z,69.30
2022-12-13T04:43:09.721Z,60.60
2022-12-13T04:45:36.433Z,63.10
2022-12-13T04:48:03.280Z,73.00
2022-12-13T04:50:32.559Z,66.38
2022-12-13T04:52:59.255Z,75.07
2022-12-13T04:55:25.922Z,64.63
2022-12-13T04:57:52.558Z,68.63
2022-12-13T05:00:21.065Z,71.50
2022-12-13T05:02:48.128Z,71.43
2022-12-13T05:05:15.192Z,75.55
2022-12-13T05:07:43.017Z,82.43
2022-12-13T05:10:11.356Z,74.70
2022-12-13T05:12:38.233Z,66.57
2022-12-13T05:15:05.667Z,80.45
2022-12-13T05:17:32.373Z,79.97
2022-12-13T05:19:59.063Z,65.80
2022-12-13T05:22:26.542Z,76.32
2022-12-13T05:24:53.212Z,71.03
2022-12-13T05:27:25.780Z,74.90
2022-12-13T05:30:03.208Z,72.05
2022-12-13T05:32:43.121Z,75.70
2022-12-13T05:35:22.556Z,72.65
2022-12-13T05:37:55.046Z,74.97
2022-12-13T05:43:01.423Z,73.90
2022-12-13T05:45:30.487Z,76.35
2022-12-13T05:47:57.124Z,76.30
2022-12-13T05:50:24.465Z,79.35
2022-12-13T05:52:51.413Z,65.13
2022-12-13T05:55:18.361Z,66.85
2022-12-13T05:57:50.420Z,72.40
2022-12-13T06:00:29.140Z,72.90
2022-12-13T06:03:00.609Z,73.18
2022-12-13T06:05:29.343Z,81.50
2022-12-13T06:07:57.837Z,68.15
2022-12-13T06:10:34.091Z,72.07
2022-12-13T06:13:02.641Z,68.90
2022-12-13T06:15:34.822Z,72.50
2022-12-13T06:18:01.973Z,68.45
2022-12-13T06:20:28.811Z,74.22
2022-12-13T06:22:55.502Z,74.05
2022-12-13T06:25:31.587Z,68.50
2022-12-13T06:28:01.026Z,65.00
2022-12-13T06:30:29.197Z,77.90
2022-12-13T06:32:56.237Z,67.53
2022-12-13T06:35:27.982Z,67.75
2022-12-13T06:38:01.413Z,69.65
2022-12-13T06:40:32.459Z,67.47
2022-12-13T06:42:59.288Z,67.07
2022-12-13T06:45:26.512Z,80.68
2022-12-13T06:47:53.307Z,70.35
2022-12-13T06:50:20.173Z,81.22
2022-12-13T06:52:47.357Z,68.68
2022-12-13T06:55:14.382Z,72.85
2022-12-13T06:57:41.589Z,76.38
2022-12-13T07:00:09.665Z,68.40
2022-12-13T07:02:38.028Z,69.28
2022-12-13T07:05:05.443Z,59.90
2022-12-13T07:07:32.345Z,64.85
2022-12-13T07:09:59.131Z,72.75
2022-12-13T07:12:25.822Z,72.60
2022-12-13T07:14:52.746Z,72.30
2022-12-13T07:17:32.681Z,67.05
2022-12-13T07:20:08.108Z,69.35
2022-12-13T07:22:39.884Z,67.65
2022-12-13T07:25:27.782Z,83.45
2022-12-13T07:28:14.217Z,73.82
2022-12-13T07:30:41.861Z,70.10
2022-12-13T07:33:09.663Z,78.72
2022-12-13T07:35:37.466Z,75.32
2022-12-13T07:38:09.788Z,72.03
2022-12-13T07:40:38.897Z,73.93
2022-12-13T07:43:06.777Z,72.70
2022-12-13T07:45:33.464Z,76.22
2022-12-13T07:48:04.444Z,74.30
2022-12-13T07:50:36.883Z,69.45
2022-12-13T07:53:08.459Z,76.38
2022-12-13T07:55:36.424Z,75.82
2022-12-13T07:58:14.466Z,70.13
2022-12-13T08:00:46.045Z,73.97
2022-12-13T08:03:24.214Z,72.43
2022-12-13T08:06:09.229Z,83.15
2022-12-13T08:08:37.498Z,82.43
2022-12-13T08:11:06.835Z,72.03
2022-12-13T08:13:34.144Z,73.15
2022-12-13T08:16:03.016Z,81.68
2022-12-13T08:18:30.540Z,75.72
2022-12-13T08:21:01.893Z,84.95
2022-12-13T08:25:56.562Z,81.85
2022-12-13T08:28:24.278Z,81.18
2022-12-13T08:30:53.049Z,81.88
2022-12-13T08:33:20.823Z,86.35
2022-12-13T08:35:47.984Z,81.85
2022-12-13T08:38:14.735Z,80.03
2022-12-13T08:40:51.570Z,82.95
2022-12-13T08:43:18.632Z,78.40
2022-12-13T08:45:51.691Z,76.82
2022-12-13T08:48:18.668Z,73.38
2022-12-13T08:50:45.630Z,75.60
2022-12-13T08:53:12.253Z,70.97
2022-12-13T08:56:04.257Z,69.68
2022-12-13T08:58:31.341Z,69.65
2022-12-13T09:00:58.357Z,77.72
2022-12-13T09:03:25.540Z,62.03
2022-12-13T09:05:52.217Z,69.88
2022-12-13T09:08:24.535Z,71.28
2022-12-13T09:11:11.217Z,68.93
2022-12-13T09:13:49.249Z,66.95
2022-12-13T09:16:23.584Z,77.07
2022-12-13T09:18:55.295Z,67.53
2022-12-13T09:21:31.803Z,73.80
2022-12-13T09:24:01.962Z,63.38
2022-12-13T09:26:29.072Z,75.53
2022-12-13T09:29:10.533Z,69.22
2022-12-13T09:31:40.161Z,64.30
2022-12-13T09:34:07.031Z,65.30
2022-12-13T09:36:33.927Z,67.03
2022-12-13T09:39:00.540Z,65.47
2022-12-13T09:41:44.107Z,61.10
2022-12-13T09:44:32.677Z,66.90
2022-12-13T09:47:22.695Z,58.63
2022-12-13T09:52:21.697Z,55.92
2022-12-13T09:54:52.921Z,61.42
2022-12-13T09:57:30.935Z,62.43
2022-12-13T10:00:05.402Z,57.85
2022-12-13T10:02:46.704Z,57.08
2022-12-13T10:05:34.080Z,60.55
2022-12-13T10:10:43.700Z,55.67
2022-12-13T10:13:24.319Z,60.47
2022-12-13T10:15:57.219Z,45.97
2022-12-13T10:18:45.321Z,49.75
2022-12-13T10:21:26.575Z,44.72
2022-12-13T10:26:42.582Z,52.42
2022-12-13T10:29:09.423Z,55.70
2022-12-13T10:31:42.091Z,48.97
2022-12-13T10:34:25.030Z,45.03
2022-12-13T10:36:52.043Z,42.25
2022-12-13T10:39:40.470Z,43.15
2022-12-13T10:42:23.428Z,45.83
2022-12-13T10:45:10.530Z,38.95
2022-12-13T10:47:37.334Z,45.40
2022-12-13T10:50:04.346Z,43.38
2022-12-13T10:52:43.178Z,43.95
2022-12-13T10:55:30.100Z,41.97
2022-12-13T10:58:03.620Z,45.70
2022-12-13T11:00:46.377Z,39.38
2022-12-13T11:03:27.724Z,40.75
2022-12-13T11:06:17.907Z,37.90
2022-12-13T11:08:44.574Z,48.33
2022-12-13T11:11:12.369Z,44.25
2022-12-13T11:13:50.643Z,43.05
2022-12-13T11:16:40.656Z,36.83
2022-12-13T11:19:23.369Z,43.40
2022-12-13T11:21:54.251Z,41.38
2022-12-13T11:24:42.130Z,40.72
2022-12-13T11:27:35.341Z,43.42
2022-12-13T11:30:22.313Z,43.72
2022-12-13T11:33:00.804Z,43.28
2022-12-13T11:36:01.815Z,42.45
2022-12-13T11:38:39.490Z,42.10
2022-12-13T11:41:14.275Z,39.25
2022-12-13T11:44:03.915Z,36.58
2022-12-13T11:46:41.705Z,38.65
2022-12-13T11:49:17.964Z,35.08
2022-12-13T11:51:51.990Z,41.25
2022-12-13T11:54:49.250Z,39.15
2022-12-13T11:57:46.707Z,44.78
2022-12-13T12:00:36.985Z,38.55
2022-12-13T12:03:12.640Z,36.58
2022-12-13T12:05:43.315Z,40.78
2022-12-13T12:08:31.711Z,38.83
2022-12-13T12:11:25.829Z,38.47
2022-12-13T12:13:59.238Z,37.47
2022-12-13T12:16:39.974Z,35.05
2022-12-13T12:19:18.193Z,38.00
2022-12-13T12:25:28.995Z,38.80
2022-12-13T12:28:19.555Z,46.42
2022-12-13T12:30:54.894Z,37.40
2022-12-13T12:33:31.326Z,40.38
2022-12-13T12:36:19.185Z,39.15
2022-12-13T12:39:07.364Z,42.13
2022-12-13T12:42:27.386Z,36.67
2022-12-13T12:45:10.636Z,39.85
2022-12-13T12:51:19.676Z,41.97
2022-12-13T12:54:13.078Z,33.85
2022-12-13T12:57:07.642Z,38.65
2022-12-13T13:00:10.000Z,37.70
2022-12-13T13:02:52.159Z,37.65
2022-12-13T13:05:30.585Z,38.28
2022-12-13T13:08:05.431Z,32.88
2022-12-13T13:10:32.785Z,47.63
2022-12-13T13:13:12.433Z,37.83
2022-12-13T13:15:39.818Z,33.83
2022-12-13T13:18:43.949Z,37.20
2022-12-13T13:21:29.165Z,41.50
2022-12-13T13:24:04.941Z,36.97
2022-12-13T13:26:36.215Z,39.05
2022-12-13T13:29:27.007Z,35.20
2022-12-13T13:32:10.997Z,40.15
2022-12-13T13:34:43.493Z,38.38
2022-12-13T13:37:26.071Z,34.83
2022-12-13T13:39:52.770Z,42.45
2022-12-13T13:42:30.517Z,38.97
2022-12-13T13:45:23.471Z,35.90
2022-12-13T13:48:18.938Z,33.58
2022-12-13T13:51:23.406Z,46.10
2022-12-13T13:54:22.810Z,36.05
2022-12-13T13:57:07.871Z,36.22
2022-12-13T13:59:56.239Z,33.03
2022-12-13T14:02:41.252Z,33.65
2022-12-13T14:05:41.493Z,29.48
2022-12-13T14:08:50.415Z,37.60
2022-12-13T14:11:21.056Z,33.45
2022-12-13T14:14:25.465Z,34.87
2022-12-13T14:17:09.762Z,31.02
2022-12-13T14:20:01.539Z,34.22
2022-12-13T14:25:31.327Z,32.40
2022-12-13T14:28:35.098Z,35.53
2022-12-13T14:31:02.014Z,35.65
2022-12-13T14:33:29.549Z,32.58
2022-12-13T14:36:01.602Z,34.08
2022-12-13T14:38:31.267Z,32.75
2022-12-13T14:41:01.088Z,36.10
2022-12-13T14:43:30.418Z,35.13
2022-12-13T14:46:00.181Z,34.08
2022-12-13T14:48:29.523Z,32.67
2022-12-13T14:50:57.056Z,29.42
2022-12-13T14:53:27.825Z,33.20
2022-12-13T14:56:28.850Z,32.95
2022-12-13T14:58:57.021Z,33.45
2022-12-13T15:01:34.701Z,37.25
2022-12-13T15:04:17.180Z,29.08
2022-12-13T15:06:48.543Z,30.80
2022-12-13T15:11:44.576Z,30.98
2022-12-13T15:14:20.809Z,30.75
2022-12-13T15:16:50.023Z,33.00
2022-12-13T15:19:31.071Z,34.70
2022-12-13T15:22:12.928Z,29.92
2022-12-13T15:24:50.108Z,31.42
2022-12-13T15:27:25.829Z,30.33
2022-12-13T15:29:54.128Z,30.42
2022-12-13T15:32:23.073Z,34.10
2022-12-13T15:34:51.384Z,30.80
2022-12-13T15:37:29.823Z,37.88
2022-12-13T15:40:00.574Z,31.52
2022-12-13T15:42:34.141Z,40.38
2022-12-13T15:45:07.749Z,39.78
2022-12-13T15:47:34.592Z,29.50
2022-12-13T15:50:06.639Z,29.73
2022-12-13T15:52:38.417Z,37.30
2022-12-13T15:55:10.924Z,31.73
2022-12-13T15:57:53.965Z,39.28
2022-12-13T16:00:29.318Z,35.80
2022-12-13T16:03:12.717Z,35.58
2022-12-13T16:05:48.505Z,33.22
2022-12-13T16:08:32.033Z,34.97
2022-12-13T16:10:59.450Z,37.03
2022-12-13T16:13:35.400Z,33.30
2022-12-13T16:16:27.067Z,35.45
2022-12-13T16:19:00.202Z,32.38
2022-12-13T16:21:28.165Z,31.48
2022-12-13T16:23:55.074Z,33.28
2022-12-13T16:26:25.528Z,32.70
2022-12-13T16:28:53.495Z,32.40
2022-12-13T16:31:25.381Z,35.53
2022-12-13T16:33:52.552Z,33.72
2022-12-13T16:36:19.904Z,31.20
2022-12-13T16:38:46.607Z,34.55
2022-12-13T16:41:14.652Z,27.77
2022-12-13T16:43:56.973Z,31.23
2022-12-13T16:47:14.683Z,33.25
2022-12-13T16:49:20.392Z,32.17
2022-12-13T16:51:48.899Z,32.15
2022-12-13T16:54:17.108Z,39.05
2022-12-13T16:56:43.870Z,34.70
2022-12-13T16:59:15.286Z,30.42
2022-12-13T17:01:43.614Z,33.72
2022-12-13T17:04:20.151Z,35.28
2022-12-13T17:06:50.165Z,31.27
2022-12-13T17:09:18.008Z,29.27
2022-12-13T17:11:45.382Z,31.48
2022-12-13T17:14:12.012Z,30.13
2022-12-13T17:16:38.679Z,31.25
2022-12-13T17:19:05.324Z,31.13
2022-12-13T17:21:32.155Z,33.70
2022-12-13T17:24:01.158Z,33.08
2022-12-13T17:26:29.120Z,36.25
2022-12-13T17:28:56.259Z,31.65
2022-12-13T17:31:23.113Z,29.13
2022-12-13T17:33:49.791Z,35.47
2022-12-13T17:36:17.080Z,41.28
2022-12-13T17:38:47.600Z,35.45
2022-12-13T17:41:15.885Z,68.80
2022-12-13T17:43:43.732Z,47.10
2022-12-13T17:46:14.087Z,30.27
2022-12-13T17:48:41.983Z,30.70
2022-12-13T17:51:10.472Z,29.20
2022-12-13T17:53:39.726Z,34.47
2022-12-13T17:56:08.113Z,32.50
2022-12-13T17:58:35.242Z,41.40
2022-12-13T18:01:25.038Z,34.25
2022-12-13T18:03:53.986Z,35.13
2022-12-13T18:06:21.113Z,31.20
2022-12-13T18:08:48.304Z,37.42
2022-12-13T18:11:32.785Z,32.15
2022-12-13T18:14:01.543Z,34.38
2022-12-13T18:16:35.845Z,28.92
2022-12-13T18:19:06.141Z,31.80
2022-12-13T18:21:34.426Z,35.42
2022-12-13T18:24:01.270Z,36.22
2022-12-13T18:26:27.884Z,37.22
2022-12-13T18:28:54.597Z,31.40
2022-12-13T18:31:23.883Z,37.72
2022-12-13T18:33:52.746Z,30.23
2022-12-13T18:36:21.810Z,36.03
2022-12-13T18:38:48.511Z,31.23
2022-12-13T18:41:18.207Z,30.08
2022-12-13T18:43:45.599Z,30.23
2022-12-13T18:46:13.487Z,28.80
2022-12-13T18:48:40.941Z,24.92
2022-12-13T18:51:09.824Z,34.35
2022-12-13T18:53:37.386Z,29.88
2022-12-13T18:56:08.200Z,32.38
2022-12-13T18:58:38.045Z,30.02
2022-12-13T19:01:05.318Z,28.00
2022-12-13T19:03:32.825Z,27.80
2022-12-13T19:06:00.920Z,29.65
2022-12-13T19:08:30.643Z,28.38
2022-12-13T19:11:01.193Z,24.95
2022-12-13T19:13:29.841Z,29.38
2022-12-13T19:15:58.315Z,28.13
2022-12-13T19:18:25.032Z,30.30
2022-12-13T19:20:53.537Z,27.60
2022-12-13T19:23:20.919Z,26.95
2022-12-13T19:25:48.621Z,25.50
2022-12-13T19:28:17.317Z,70.03
2022-12-13T19:30:45.993Z,36.38
2022-12-13T19:33:13.947Z,30.73
2022-12-13T19:35:42.973Z,28.17
2022-12-13T19:38:10.174Z,25.98
2022-12-13T19:40:41.293Z,30.38
2022-12-13T19:43:08.884Z,30.05
2022-12-13T19:45:35.663Z,28.70
2022-12-13T19:48:02.493Z,28.75
2022-12-13T19:50:29.874Z,33.03
2022-12-13T19:52:56.707Z,25.25
2022-12-13T19:55:23.384Z,31.48
2022-12-13T19:57:50.061Z,29.48
2022-12-13T20:00:17.250Z,28.70
2022-12-13T20:02:43.969Z,31.70
2022-12-13T20:05:10.732Z,23.98
2022-12-13T20:07:37.538Z,23.45
2022-12-13T20:10:05.261Z,26.80
2022-12-13T20:12:37.044Z,22.35
2022-12-13T20:15:08.235Z,22.25
2022-12-13T20:17:35.328Z,22.52
2022-12-13T20:20:02.561Z,21.40
2022-12-13T20:22:29.304Z,23.88
2022-12-13T20:24:55.955Z,24.52
2022-12-13T20:27:22.540Z,25.83
2022-12-13T20:29:50.029Z,24.02
2022-12-13T20:32:17.095Z,22.25
2022-12-13T20:34:43.888Z,25.23
2022-12-13T20:37:10.567Z,19.75
2022-12-13T20:39:37.313Z,22.65
2022-12-13T20:42:04.021Z,23.75
2022-12-13T20:44:30.852Z,21.88
2022-12-13T20:46:57.610Z,22.20
2022-12-13T20:49:24.360Z,22.52
2022-12-13T20:51:50.984Z,25.73
2022-12-13T20:54:17.601Z,22.20
2022-12-13T20:56:44.221Z,22.48
2022-12-13T20:59:12.673Z,21.08
2022-12-13T21:01:40.728Z,26.02
2022-12-13T21:04:09.484Z,21.08
2022-12-13T21:06:38.498Z,22.75
2022-12-13T21:09:05.750Z,21.70
2022-12-13T21:11:37.013Z,23.70
2022-12-13T21:14:22.444Z,23.92
2022-12-13T21:17:00.564Z,28.02
2022-12-13T21:19:39.101Z,21.00
2022-12-13T21:22:06.632Z,22.63
2022-12-13T21:24:33.281Z,21.27
2022-12-13T21:27:00.144Z,22.00
2022-12-13T21:29:26.992Z,21.98
2022-12-13T21:31:54.672Z,22.05
2022-12-13T21:34:22.179Z,21.25
2022-12-13T21:36:50.794Z,23.13
2022-12-13T21:39:20.214Z,20.52
2022-12-13T21:41:46.977Z,20.73
2022-12-13T21:44:16.180Z,19.38
2022-12-13T21:49:29.758Z,21.88
2022-12-13T21:51:56.897Z,22.15
2022-12-13T21:54:23.531Z,18.45
2022-12-13T21:57:08.594Z,22.13
2022-12-13T21:59:35.335Z,20.90
2022-12-13T22:02:12.956Z,20.60
2022-12-13T22:04:49.038Z,23.67
2022-12-13T22:07:30.268Z,22.00
2022-12-13T22:09:58.177Z,17.85
2022-12-13T22:12:36.630Z,19.48
2022-12-13T22:15:08.874Z,23.63
2022-12-13T22:17:36.600Z,23.23
2022-12-13T22:20:10.362Z,23.17
2022-12-13T22:22:41.549Z,24.70
2022-12-13T22:25:09.400Z,20.27
2022-12-13T22:27:36.227Z,19.65
2022-12-13T22:30:03.169Z,20.83
2022-12-13T22:32:31.304Z,21.13
2022-12-13T22:34:58.001Z,22.77
2022-12-13T22:37:25.390Z,18.20
2022-12-13T22:39:52.125Z,20.00
2022-12-13T22:42:19.398Z,18.52
2022-12-13T22:44:46.113Z,22.52
2022-12-13T22:47:12.794Z,22.48
2022-12-13T22:49:39.930Z,25.35
2022-12-13T22:52:06.667Z,17.85
2022-12-13T22:54:33.297Z,16.98
2022-12-13T22:56:59.932Z,16.25
2022-12-13T22:59:26.555Z,20.50
2022-12-13T23:02:01.413Z,19.95
2022-12-13T23:04:29.156Z,18.70
2022-12-13T23:06:55.789Z,17.33
2022-12-13T23:09:22.397Z,17.00
2022-12-13T23:12:07.828Z,18.05
2022-12-13T23:14:34.942Z,17.88
2022-12-13T23:17:02.509Z,20.00
2022-12-13T23:19:50.631Z,19.50
2022-12-13T23:22:16.701Z,20.23
2022-12-13T23:24:43.403Z,19.15
2022-12-13T23:27:10.135Z,18.30
2022-12-13T23:29:36.970Z,15.18
2022-12-13T23:32:04.305Z,15.90
2022-12-13T23:34:31.029Z,18.35
2022-12-13T23:36:57.700Z,22.58
2022-12-13T23:39:24.387Z,16.20
2022-12-13T23:41:51.020Z,18.40
2022-12-13T23:44:17.642Z,15.90
2022-12-13T23:46:48.279Z,17.17
2022-12-13T23:49:16.060Z,15.18
2022-12-13T23:51:42.725Z,20.15
2022-12-13T23:54:14.404Z,18.63
2022-12-13T23:56:41.100Z,15.98
2022-12-13T23:59:07.710Z,20.25
